sensor_id;sensor_type;location;lat;lon;timestamp;pressure;altitude;pressure_sealevel;temperature;humidity
65190;BME280;51777;53.570;9.984;2022-08-05T00:00:59;101199.34;;;19.83;98.50
65190;BME280;51777;53.570;9.984;2022-08-05T00:03:25;101189.03;;;19.82;97.76
65190;BME280;51777;53.570;9.984;2022-08-05T00:05:50;101195.88;;;19.76;97.65
65190;BME280;51777;53.570;9.984;2022-08-05T00:08:16;101199.53;;;19.75;97.63
65190;BME280;51777;53.570;9.984;2022-08-05T00:10:41;101199.72;;;19.74;97.06
65190;BME280;51777;53.570;9.984;2022-08-05T00:13:06;101204.97;;;19.74;96.15
65190;BME280;51777;53.570;9.984;2022-08-05T00:15:32;101215.41;;;19.67;95.51
65190;BME280;51777;53.570;9.984;2022-08-05T00:17:57;101209.34;;;19.60;94.95
65190;BME280;51777;53.570;9.984;2022-08-05T00:20:22;101211.75;;;19.61;94.30
65190;BME280;51777;53.570;9.984;2022-08-05T00:22:48;101205.72;;;19.61;94.80
65190;BME280;51777;53.570;9.984;2022-08-05T00:25:14;101212.69;;;19.54;94.10
65190;BME280;51777;53.570;9.984;2022-08-05T00:27:39;101205.22;;;19.51;93.32
65190;BME280;51777;53.570;9.984;2022-08-05T00:30:05;101211.81;;;19.47;92.87
65190;BME280;51777;53.570;9.984;2022-08-05T00:32:31;101209.38;;;19.45;92.28
65190;BME280;51777;53.570;9.984;2022-08-05T00:34:56;101209.78;;;19.42;91.55
65190;BME280;51777;53.570;9.984;2022-08-05T00:37:22;101206.75;;;19.39;92.32
65190;BME280;51777;53.570;9.984;2022-08-05T00:39:47;101197.00;;;19.32;90.55
65190;BME280;51777;53.570;9.984;2022-08-05T00:42:12;101201.75;;;19.22;90.39
65190;BME280;51777;53.570;9.984;2022-08-05T00:44:41;101211.91;;;19.25;90.74
65190;BME280;51777;53.570;9.984;2022-08-05T00:47:06;101218.06;;;19.18;88.59
65190;BME280;51777;53.570;9.984;2022-08-05T00:49:32;101222.28;;;19.12;87.85
65190;BME280;51777;53.570;9.984;2022-08-05T00:51:57;101224.44;;;19.08;88.26
65190;BME280;51777;53.570;9.984;2022-08-05T00:54:23;101226.25;;;19.08;87.91
65190;BME280;51777;53.570;9.984;2022-08-05T00:56:48;101221.66;;;19.10;86.93
65190;BME280;51777;53.570;9.984;2022-08-05T00:59:14;101223.28;;;19.11;87.50
65190;BME280;51777;53.570;9.984;2022-08-05T01:01:39;101218.16;;;19.03;87.25
65190;BME280;51777;53.570;9.984;2022-08-05T01:04:05;101218.56;;;19.00;85.84
65190;BME280;51777;53.570;9.984;2022-08-05T01:06:30;101227.84;;;19.02;86.82
65190;BME280;51777;53.570;9.984;2022-08-05T01:08:56;101227.53;;;19.12;86.73
65190;BME280;51777;53.570;9.984;2022-08-05T01:11:23;101215.03;;;19.14;85.32
65190;BME280;51777;53.570;9.984;2022-08-05T01:13:59;101209.72;;;19.07;85.16
65190;BME280;51777;53.570;9.984;2022-08-05T01:16:33;101214.78;;;19.09;85.41
65190;BME280;51777;53.570;9.984;2022-08-05T01:19:09;101212.59;;;19.13;84.84
65190;BME280;51777;53.570;9.984;2022-08-05T01:21:54;101203.31;;;19.10;83.87
65190;BME280;51777;53.570;9.984;2022-08-05T01:24:35;101205.25;;;19.01;83.48
65190;BME280;51777;53.570;9.984;2022-08-05T01:30:03;101200.31;;;19.13;83.41
65190;BME280;51777;53.570;9.984;2022-08-05T01:32:32;101177.72;;;19.12;82.55
65190;BME280;51777;53.570;9.984;2022-08-05T01:35:09;101167.59;;;19.09;81.91
65190;BME280;51777;53.570;9.984;2022-08-05T01:37:45;101164.22;;;19.15;82.05
65190;BME280;51777;53.570;9.984;2022-08-05T01:40:13;101152.34;;;19.19;81.30
65190;BME280;51777;53.570;9.984;2022-08-05T01:42:41;101154.56;;;19.22;81.25
65190;BME280;51777;53.570;9.984;2022-08-05T01:45:09;101150.53;;;19.20;80.63
65190;BME280;51777;53.570;9.984;2022-08-05T01:47:37;101154.56;;;19.22;80.83
65190;BME280;51777;53.570;9.984;2022-08-05T01:50:22;101139.00;;;19.14;80.47
65190;BME280;51777;53.570;9.984;2022-08-05T01:52:49;101129.38;;;19.21;80.71
65190;BME280;51777;53.570;9.984;2022-08-05T01:55:19;101110.59;;;19.18;80.38
65190;BME280;51777;53.570;9.984;2022-08-05T01:57:47;101100.31;;;19.16;80.34
65190;BME280;51777;53.570;9.984;2022-08-05T02:00:14;101106.56;;;19.15;80.49
65190;BME280;51777;53.570;9.984;2022-08-05T02:02:54;101100.44;;;19.08;81.54
65190;BME280;51777;53.570;9.984;2022-08-05T02:05:21;101104.84;;;19.01;81.60
65190;BME280;51777;53.570;9.984;2022-08-05T02:07:48;101109.50;;;19.05;81.57
65190;BME280;51777;53.570;9.984;2022-08-05T02:10:14;101105.06;;;18.99;81.33
65190;BME280;51777;53.570;9.984;2022-08-05T02:13:03;101102.63;;;18.98;81.40
65190;BME280;51777;53.570;9.984;2022-08-05T02:15:41;101088.31;;;19.00;81.50
65190;BME280;51777;53.570;9.984;2022-08-05T02:18:24;101089.34;;;19.06;80.85
65190;BME280;51777;53.570;9.984;2022-08-05T02:20:58;101059.50;;;19.00;81.44
65190;BME280;51777;53.570;9.984;2022-08-05T02:23:30;101053.44;;;19.00;81.34
65190;BME280;51777;53.570;9.984;2022-08-05T02:25:59;101054.88;;;19.02;81.30
65190;BME280;51777;53.570;9.984;2022-08-05T02:28:29;101061.91;;;19.02;81.32
65190;BME280;51777;53.570;9.984;2022-08-05T02:30:58;101071.41;;;19.03;81.02
65190;BME280;51777;53.570;9.984;2022-08-05T02:33:24;101070.16;;;18.99;81.84
65190;BME280;51777;53.570;9.984;2022-08-05T02:35:54;101060.31;;;19.01;82.74
65190;BME280;51777;53.570;9.984;2022-08-05T02:38:21;101066.34;;;19.01;82.16
65190;BME280;51777;53.570;9.984;2022-08-05T02:40:48;101130.91;;;19.09;81.83
65190;BME280;51777;53.570;9.984;2022-08-05T02:43:15;101195.88;;;19.14;81.93
65190;BME280;51777;53.570;9.984;2022-08-05T02:45:42;101187.13;;;19.06;82.99
65190;BME280;51777;53.570;9.984;2022-08-05T02:48:09;101151.25;;;19.07;84.62
65190;BME280;51777;53.570;9.984;2022-08-05T02:50:35;101153.78;;;18.94;85.35
65190;BME280;51777;53.570;9.984;2022-08-05T02:53:01;101157.69;;;18.76;90.61
65190;BME280;51777;53.570;9.984;2022-08-05T02:55:29;101137.09;;;18.73;92.22
65190;BME280;51777;53.570;9.984;2022-08-05T02:57:57;101126.38;;;18.68;91.17
65190;BME280;51777;53.570;9.984;2022-08-05T03:00:22;101122.41;;;18.58;92.94
65190;BME280;51777;53.570;9.984;2022-08-05T03:02:49;101117.94;;;18.52;94.49
65190;BME280;51777;53.570;9.984;2022-08-05T03:05:17;101117.31;;;18.49;94.89
65190;BME280;51777;53.570;9.984;2022-08-05T03:07:44;101127.00;;;18.49;94.64
65190;BME280;51777;53.570;9.984;2022-08-05T03:10:10;101120.13;;;18.48;94.92
65190;BME280;51777;53.570;9.984;2022-08-05T03:12:38;101126.34;;;18.47;95.68
65190;BME280;51777;53.570;9.984;2022-08-05T03:15:07;101116.44;;;18.42;96.67
65190;BME280;51777;53.570;9.984;2022-08-05T03:17:34;101105.03;;;18.29;98.74
65190;BME280;51777;53.570;9.984;2022-08-05T03:20:00;101110.19;;;18.22;99.24
65190;BME280;51777;53.570;9.984;2022-08-05T03:22:26;101142.38;;;18.16;98.10
65190;BME280;51777;53.570;9.984;2022-08-05T03:24:51;101146.50;;;18.10;100.00
65190;BME280;51777;53.570;9.984;2022-08-05T03:27:18;101145.91;;;18.08;100.00
65190;BME280;51777;53.570;9.984;2022-08-05T03:29:44;101151.13;;;18.08;99.66
65190;BME280;51777;53.570;9.984;2022-08-05T03:32:10;101165.59;;;18.04;99.74
65190;BME280;51777;53.570;9.984;2022-08-05T03:34:37;101157.03;;;17.96;100.00
65190;BME280;51777;53.570;9.984;2022-08-05T03:37:04;101153.78;;;17.94;100.00
65190;BME280;51777;53.570;9.984;2022-08-05T03:39:30;101161.44;;;17.95;100.00
65190;BME280;51777;53.570;9.984;2022-08-05T03:41:56;101150.72;;;17.90;100.00
65190;BME280;51777;53.570;9.984;2022-08-05T03:44:23;101145.50;;;17.90;100.00
65190;BME280;51777;53.570;9.984;2022-08-05T03:46:48;101142.88;;;17.90;100.00
65190;BME280;51777;53.570;9.984;2022-08-05T03:49:14;101141.25;;;17.89;100.00
65190;BME280;51777;53.570;9.984;2022-08-05T03:51:59;101128.91;;;17.83;100.00
65190;BME280;51777;53.570;9.984;2022-08-05T03:54:33;101131.53;;;17.83;100.00
65190;BME280;51777;53.570;9.984;2022-08-05T03:57:01;101124.41;;;17.77;100.00
65190;BME280;51777;53.570;9.984;2022-08-05T03:59:33;101118.56;;;17.75;100.00
65190;BME280;51777;53.570;9.984;2022-08-05T04:02:00;101127.41;;;17.74;100.00
65190;BME280;51777;53.570;9.984;2022-08-05T04:04:28;101128.38;;;17.73;100.00
65190;BME280;51777;53.570;9.984;2022-08-05T04:06:55;101134.31;;;17.67;100.00
65190;BME280;51777;53.570;9.984;2022-08-05T04:09:20;101138.28;;;17.63;100.00
65190;BME280;51777;53.570;9.984;2022-08-05T04:11:46;101136.94;;;17.67;100.00
65190;BME280;51777;53.570;9.984;2022-08-05T04:14:12;101143.25;;;17.57;100.00
65190;BME280;51777;53.570;9.984;2022-08-05T04:16:38;101137.31;;;17.64;100.00
65190;BME280;51777;53.570;9.984;2022-08-05T04:19:03;101137.94;;;17.66;100.00
65190;BME280;51777;53.570;9.984;2022-08-05T04:21:29;101137.31;;;17.64;100.00
65190;BME280;51777;53.570;9.984;2022-08-05T04:23:55;101131.88;;;17.65;100.00
65190;BME280;51777;53.570;9.984;2022-08-05T04:26:23;101144.34;;;17.63;100.00
65190;BME280;51777;53.570;9.984;2022-08-05T04:28:48;101152.81;;;17.65;100.00
65190;BME280;51777;53.570;9.984;2022-08-05T04:31:13;101153.28;;;17.69;100.00
65190;BME280;51777;53.570;9.984;2022-08-05T04:33:39;101157.50;;;17.70;100.00
65190;BME280;51777;53.570;9.984;2022-08-05T04:36:04;101168.41;;;17.73;100.00
65190;BME280;51777;53.570;9.984;2022-08-05T04:38:30;101166.78;;;17.72;100.00
65190;BME280;51777;53.570;9.984;2022-08-05T04:40:55;101158.22;;;17.64;100.00
65190;BME280;51777;53.570;9.984;2022-08-05T04:43:21;101170.59;;;17.70;100.00
65190;BME280;51777;53.570;9.984;2022-08-05T04:45:46;101179.25;;;17.70;100.00
65190;BME280;51777;53.570;9.984;2022-08-05T04:48:13;101181.28;;;17.60;100.00
65190;BME280;51777;53.570;9.984;2022-08-05T04:50:39;101181.47;;;17.58;100.00
65190;BME280;51777;53.570;9.984;2022-08-05T04:53:06;101179.16;;;17.64;100.00
65190;BME280;51777;53.570;9.984;2022-08-05T04:55:32;101195.75;;;17.71;100.00
65190;BME280;51777;53.570;9.984;2022-08-05T04:57:57;101201.09;;;17.77;100.00
65190;BME280;51777;53.570;9.984;2022-08-05T05:00:23;101217.22;;;17.81;100.00
65190;BME280;51777;53.570;9.984;2022-08-05T05:02:49;101216.22;;;17.82;100.00
65190;BME280;51777;53.570;9.984;2022-08-05T05:05:28;101221.44;;;17.82;100.00
65190;BME280;51777;53.570;9.984;2022-08-05T05:08:06;101231.09;;;17.81;100.00
65190;BME280;51777;53.570;9.984;2022-08-05T05:10:42;101235.53;;;17.81;99.93
65190;BME280;51777;53.570;9.984;2022-08-05T05:13:10;101234.97;;;17.85;99.70
65190;BME280;51777;53.570;9.984;2022-08-05T05:15:36;101235.44;;;17.89;98.46
65190;BME280;51777;53.570;9.984;2022-08-05T05:18:02;101225.97;;;17.88;97.21
65190;BME280;51777;53.570;9.984;2022-08-05T05:20:29;101234.16;;;17.85;97.21
65190;BME280;51777;53.570;9.984;2022-08-05T05:22:56;101223.53;;;18.01;98.47
65190;BME280;51777;53.570;9.984;2022-08-05T05:25:22;101219.16;;;18.08;97.17
65190;BME280;51777;53.570;9.984;2022-08-05T05:27:47;101211.22;;;18.16;96.51
65190;BME280;51777;53.570;9.984;2022-08-05T05:30:14;101210.75;;;18.28;95.66
65190;BME280;51777;53.570;9.984;2022-08-05T05:32:39;101214.56;;;18.25;95.76
65190;BME280;51777;53.570;9.984;2022-08-05T05:35:05;101213.91;;;18.38;96.05
65190;BME280;51777;53.570;9.984;2022-08-05T05:37:30;101221.63;;;18.46;95.15
65190;BME280;51777;53.570;9.984;2022-08-05T05:39:56;101226.59;;;18.41;94.40
65190;BME280;51777;53.570;9.984;2022-08-05T05:42:21;101232.47;;;18.43;94.26
65190;BME280;51777;53.570;9.984;2022-08-05T05:44:47;101223.66;;;18.29;94.50
65190;BME280;51777;53.570;9.984;2022-08-05T05:47:12;101227.38;;;18.20;94.88
65190;BME280;51777;53.570;9.984;2022-08-05T05:49:37;101212.13;;;18.24;94.68
65190;BME280;51777;53.570;9.984;2022-08-05T05:52:03;101211.47;;;18.22;94.51
65190;BME280;51777;53.570;9.984;2022-08-05T05:54:28;101207.84;;;18.23;94.88
65190;BME280;51777;53.570;9.984;2022-08-05T05:56:54;101218.66;;;18.13;94.83
65190;BME280;51777;53.570;9.984;2022-08-05T05:59:19;101234.16;;;18.14;94.85
65190;BME280;51777;53.570;9.984;2022-08-05T06:01:44;101245.00;;;18.11;95.11
65190;BME280;51777;53.570;9.984;2022-08-05T06:04:12;101264.75;;;18.14;96.50
65190;BME280;51777;53.570;9.984;2022-08-05T06:06:39;101258.91;;;18.12;96.97
65190;BME280;51777;53.570;9.984;2022-08-05T06:09:05;101260.06;;;18.09;98.27
65190;BME280;51777;53.570;9.984;2022-08-05T06:11:33;101247.50;;;18.19;97.42
65190;BME280;51777;53.570;9.984;2022-08-05T06:13:59;101246.50;;;18.20;97.03
65190;BME280;51777;53.570;9.984;2022-08-05T06:16:25;101242.78;;;18.30;94.56
65190;BME280;51777;53.570;9.984;2022-08-05T06:18:50;101244.19;;;18.47;95.05
65190;BME280;51777;53.570;9.984;2022-08-05T06:21:16;101231.78;;;18.56;93.08
65190;BME280;51777;53.570;9.984;2022-08-05T06:23:42;101233.38;;;18.50;93.52
65190;BME280;51777;53.570;9.984;2022-08-05T06:26:07;101235.38;;;18.48;92.93
65190;BME280;51777;53.570;9.984;2022-08-05T06:28:33;101236.66;;;18.73;92.00
65190;BME280;51777;53.570;9.984;2022-08-05T06:30:58;101254.66;;;18.83;90.07
65190;BME280;51777;53.570;9.984;2022-08-05T06:33:24;101261.84;;;18.96;90.62
65190;BME280;51777;53.570;9.984;2022-08-05T06:35:50;101248.84;;;19.09;89.52
65190;BME280;51777;53.570;9.984;2022-08-05T06:38:16;101249.53;;;19.18;90.32
65190;BME280;51777;53.570;9.984;2022-08-05T06:40:42;101242.97;;;19.28;87.08
65190;BME280;51777;53.570;9.984;2022-08-05T06:43:08;101248.69;;;19.39;88.26
65190;BME280;51777;53.570;9.984;2022-08-05T06:45:34;101232.69;;;19.55;86.98
65190;BME280;51777;53.570;9.984;2022-08-05T06:47:59;101240.50;;;19.76;86.27
65190;BME280;51777;53.570;9.984;2022-08-05T06:50:24;101239.78;;;19.95;85.66
65190;BME280;51777;53.570;9.984;2022-08-05T06:52:51;101250.97;;;20.11;83.71
65190;BME280;51777;53.570;9.984;2022-08-05T06:55:16;101246.59;;;20.24;84.06
65190;BME280;51777;53.570;9.984;2022-08-05T06:57:42;101251.63;;;20.26;82.71
65190;BME280;51777;53.570;9.984;2022-08-05T07:00:08;101264.88;;;20.52;82.61
65190;BME280;51777;53.570;9.984;2022-08-05T07:02:45;101271.16;;;20.51;80.73
65190;BME280;51777;53.570;9.984;2022-08-05T07:05:11;101259.47;;;20.61;81.25
65190;BME280;51777;53.570;9.984;2022-08-05T07:07:40;101256.63;;;20.69;80.54
65190;BME280;51777;53.570;9.984;2022-08-05T07:10:08;101262.50;;;20.77;80.81
65190;BME280;51777;53.570;9.984;2022-08-05T07:12:34;101260.09;;;20.76;80.03
65190;BME280;51777;53.570;9.984;2022-08-05T07:15:18;101266.28;;;20.55;80.15
65190;BME280;51777;53.570;9.984;2022-08-05T07:18:02;101267.34;;;20.13;81.89
65190;BME280;51777;53.570;9.984;2022-08-05T07:20:29;101260.28;;;20.13;82.02
65190;BME280;51777;53.570;9.984;2022-08-05T07:22:54;101261.50;;;20.17;82.25
65190;BME280;51777;53.570;9.984;2022-08-05T07:25:21;101255.28;;;20.25;81.55
65190;BME280;51777;53.570;9.984;2022-08-05T07:27:48;101255.88;;;20.27;82.13
65190;BME280;51777;53.570;9.984;2022-08-05T07:30:14;101254.66;;;20.23;81.88
65190;BME280;51777;53.570;9.984;2022-08-05T07:32:40;101261.69;;;20.16;81.63
65190;BME280;51777;53.570;9.984;2022-08-05T07:35:09;101260.81;;;20.02;81.90
65190;BME280;51777;53.570;9.984;2022-08-05T07:37:36;101265.34;;;19.80;82.38
65190;BME280;51777;53.570;9.984;2022-08-05T07:40:03;101260.88;;;19.74;84.76
65190;BME280;51777;53.570;9.984;2022-08-05T07:42:28;101259.47;;;19.78;84.34
65190;BME280;51777;53.570;9.984;2022-08-05T07:44:54;101262.09;;;19.78;84.81
65190;BME280;51777;53.570;9.984;2022-08-05T07:47:20;101249.25;;;19.55;84.21
65190;BME280;51777;53.570;9.984;2022-08-05T07:49:46;101240.81;;;19.60;84.03
65190;BME280;51777;53.570;9.984;2022-08-05T07:52:11;101243.88;;;19.70;83.87
65190;BME280;51777;53.570;9.984;2022-08-05T07:54:37;101250.59;;;19.73;84.07
65190;BME280;51777;53.570;9.984;2022-08-05T07:57:03;101254.56;;;19.69;83.39
65190;BME280;51777;53.570;9.984;2022-08-05T07:59:28;101267.06;;;19.67;84.37
65190;BME280;51777;53.570;9.984;2022-08-05T08:01:54;101271.84;;;19.56;84.26
65190;BME280;51777;53.570;9.984;2022-08-05T08:04:19;101279.69;;;19.28;85.60
65190;BME280;51777;53.570;9.984;2022-08-05T08:06:45;101276.75;;;19.17;87.93
65190;BME280;51777;53.570;9.984;2022-08-05T08:09:11;101265.66;;;18.93;87.32
65190;BME280;51777;53.570;9.984;2022-08-05T08:11:36;101266.47;;;18.94;87.78
65190;BME280;51777;53.570;9.984;2022-08-05T08:14:02;101267.28;;;18.94;89.14
65190;BME280;51777;53.570;9.984;2022-08-05T08:16:29;101272.13;;;18.97;89.60
65190;BME280;51777;53.570;9.984;2022-08-05T08:18:54;101262.50;;;18.98;88.84
65190;BME280;51777;53.570;9.984;2022-08-05T08:21:20;101265.22;;;19.11;88.92
65190;BME280;51777;53.570;9.984;2022-08-05T08:23:45;101256.50;;;19.32;88.62
65190;BME280;51777;53.570;9.984;2022-08-05T08:26:13;101268.91;;;19.45;87.81
65190;BME280;51777;53.570;9.984;2022-08-05T08:28:39;101270.16;;;19.49;87.32
65190;BME280;51777;53.570;9.984;2022-08-05T08:31:08;101268.09;;;19.44;87.48
65190;BME280;51777;53.570;9.984;2022-08-05T08:33:34;101273.16;;;19.46;87.68
65190;BME280;51777;53.570;9.984;2022-08-05T08:35:59;101258.94;;;19.33;88.97
65190;BME280;51777;53.570;9.984;2022-08-05T08:38:24;101258.28;;;19.25;88.32
65190;BME280;51777;53.570;9.984;2022-08-05T08:40:50;101266.44;;;19.36;88.21
65190;BME280;51777;53.570;9.984;2022-08-05T08:43:17;101260.56;;;19.34;87.50
65190;BME280;51777;53.570;9.984;2022-08-05T08:45:43;101281.53;;;19.34;87.72
65190;BME280;51777;53.570;9.984;2022-08-05T08:48:10;101278.09;;;19.34;86.16
65190;BME280;51777;53.570;9.984;2022-08-05T08:50:39;101290.91;;;19.22;88.51
65190;BME280;51777;53.570;9.984;2022-08-05T08:53:06;101284.59;;;19.10;88.42
65190;BME280;51777;53.570;9.984;2022-08-05T08:55:33;101283.38;;;19.13;88.09
65190;BME280;51777;53.570;9.984;2022-08-05T08:57:59;101285.50;;;19.02;86.66
65190;BME280;51777;53.570;9.984;2022-08-05T09:00:28;101293.25;;;18.89;87.28
65190;BME280;51777;53.570;9.984;2022-08-05T09:02:56;101310.88;;;18.81;90.65
65190;BME280;51777;53.570;9.984;2022-08-05T09:05:21;101317.25;;;18.93;89.74
65190;BME280;51777;53.570;9.984;2022-08-05T09:07:48;101315.63;;;18.92;88.83
65190;BME280;51777;53.570;9.984;2022-08-05T09:10:14;101321.38;;;19.02;88.47
65190;BME280;51777;53.570;9.984;2022-08-05T09:12:40;101322.25;;;19.09;89.23
65190;BME280;51777;53.570;9.984;2022-08-05T09:15:06;101324.63;;;19.04;89.39
65190;BME280;51777;53.570;9.984;2022-08-05T09:17:32;101333.50;;;19.03;88.41
65190;BME280;51777;53.570;9.984;2022-08-05T09:19:58;101329.56;;;19.14;87.50
65190;BME280;51777;53.570;9.984;2022-08-05T09:22:24;101339.06;;;19.15;86.73
65190;BME280;51777;53.570;9.984;2022-08-05T09:24:59;101337.63;;;19.12;86.33
65190;BME280;51777;53.570;9.984;2022-08-05T09:27:34;101330.81;;;19.18;86.93
65190;BME280;51777;53.570;9.984;2022-08-05T09:30:04;101330.75;;;19.32;86.32
65190;BME280;51777;53.570;9.984;2022-08-05T09:32:37;101328.41;;;19.44;85.30
65190;BME280;51777;53.570;9.984;2022-08-05T09:35:10;101325.69;;;19.31;84.20
65190;BME280;51777;53.570;9.984;2022-08-05T09:37:37;101325.75;;;19.38;84.25
65190;BME280;51777;53.570;9.984;2022-08-05T09:40:05;101327.88;;;19.49;84.05
65190;BME280;51777;53.570;9.984;2022-08-05T09:42:39;101321.25;;;19.53;84.03
65190;BME280;51777;53.570;9.984;2022-08-05T09:45:07;101322.38;;;19.44;84.39
65190;BME280;51777;53.570;9.984;2022-08-05T09:47:34;101325.19;;;19.21;85.11
65190;BME280;51777;53.570;9.984;2022-08-05T09:50:04;101314.22;;;19.11;85.36
65190;BME280;51777;53.570;9.984;2022-08-05T09:52:32;101302.03;;;19.24;86.64
65190;BME280;51777;53.570;9.984;2022-08-05T09:55:06;101298.81;;;19.50;85.99
65190;BME280;51777;53.570;9.984;2022-08-05T09:57:35;101301.81;;;19.69;85.39
65190;BME280;51777;53.570;9.984;2022-08-05T10:00:17;101306.91;;;19.77;84.65
65190;BME280;51777;53.570;9.984;2022-08-05T10:02:45;101303.69;;;19.81;83.33
65190;BME280;51777;53.570;9.984;2022-08-05T10:05:22;101309.94;;;19.74;84.08
65190;BME280;51777;53.570;9.984;2022-08-05T10:07:55;101317.81;;;19.80;85.21
65190;BME280;51777;53.570;9.984;2022-08-05T10:10:30;101313.63;;;19.58;83.51
65190;BME280;51777;53.570;9.984;2022-08-05T10:12:59;101326.19;;;19.41;83.78
65190;BME280;51777;53.570;9.984;2022-08-05T10:15:32;101327.00;;;19.20;84.32
65190;BME280;51777;53.570;9.984;2022-08-05T10:18:18;101332.84;;;19.22;85.38
65190;BME280;51777;53.570;9.984;2022-08-05T10:21:16;101337.00;;;19.31;86.05
65190;BME280;51777;53.570;9.984;2022-08-05T10:23:42;101339.41;;;19.33;86.73
65190;BME280;51777;53.570;9.984;2022-08-05T10:26:10;101338.19;;;19.29;84.39
65190;BME280;51777;53.570;9.984;2022-08-05T10:28:40;101351.72;;;19.32;85.22
65190;BME280;51777;53.570;9.984;2022-08-05T10:31:06;101345.72;;;19.17;84.08
65190;BME280;51777;53.570;9.984;2022-08-05T10:33:33;101334.13;;;19.05;83.95
65190;BME280;51777;53.570;9.984;2022-08-05T10:36:00;101336.00;;;19.11;84.19
65190;BME280;51777;53.570;9.984;2022-08-05T10:38:28;101338.78;;;19.10;83.53
65190;BME280;51777;53.570;9.984;2022-08-05T10:43:56;101344.56;;;18.84;86.45
65190;BME280;51777;53.570;9.984;2022-08-05T10:46:52;101353.81;;;18.80;88.22
65190;BME280;51777;53.570;9.984;2022-08-05T10:49:18;101352.75;;;18.74;89.69
65190;BME280;51777;53.570;9.984;2022-08-05T10:51:46;101352.56;;;18.75;90.37
65190;BME280;51777;53.570;9.984;2022-08-05T10:54:13;101354.13;;;18.91;90.19
65190;BME280;51777;53.570;9.984;2022-08-05T10:56:48;101351.63;;;18.83;87.79
65190;BME280;51777;53.570;9.984;2022-08-05T10:59:27;101348.00;;;18.84;88.60
65190;BME280;51777;53.570;9.984;2022-08-05T11:02:09;101367.09;;;18.78;89.11
65190;BME280;51777;53.570;9.984;2022-08-05T11:04:53;101382.09;;;18.69;88.64
65190;BME280;51777;53.570;9.984;2022-08-05T11:07:19;101397.25;;;18.59;90.77
65190;BME280;51777;53.570;9.984;2022-08-05T11:09:51;101408.66;;;18.52;90.43
65190;BME280;51777;53.570;9.984;2022-08-05T11:17:40;101396.00;;;18.55;88.31
65190;BME280;51777;53.570;9.984;2022-08-05T11:20:30;101391.94;;;18.67;88.57
65190;BME280;51777;53.570;9.984;2022-08-05T11:22:52;101392.56;;;18.69;88.28
65190;BME280;51777;53.570;9.984;2022-08-05T11:25:31;101406.38;;;18.63;87.46
65190;BME280;51777;53.570;9.984;2022-08-05T11:38:18;101409.00;;;18.48;88.92
65190;BME280;51777;53.570;9.984;2022-08-05T11:41:07;101425.44;;;18.28;90.35
65190;BME280;51777;53.570;9.984;2022-08-05T11:43:33;101425.00;;;18.39;90.52
65190;BME280;51777;53.570;9.984;2022-08-05T11:46:00;101428.50;;;18.46;88.69
65190;BME280;51777;53.570;9.984;2022-08-05T11:48:26;101438.91;;;18.54;88.40
65190;BME280;51777;53.570;9.984;2022-08-05T11:50:53;101428.81;;;18.66;88.43
65190;BME280;51777;53.570;9.984;2022-08-05T11:53:19;101433.03;;;18.82;88.17
65190;BME280;51777;53.570;9.984;2022-08-05T11:55:56;101435.81;;;18.95;87.79
65190;BME280;51777;53.570;9.984;2022-08-05T11:58:37;101447.97;;;19.17;87.71
65190;BME280;51777;53.570;9.984;2022-08-05T12:01:08;101437.25;;;19.33;87.11
65190;BME280;51777;53.570;9.984;2022-08-05T12:03:43;101449.25;;;19.43;86.72
65190;BME280;51777;53.570;9.984;2022-08-05T12:06:10;101444.00;;;19.43;86.35
65190;BME280;51777;53.570;9.984;2022-08-05T12:08:43;101449.94;;;19.66;87.18
65190;BME280;51777;53.570;9.984;2022-08-05T12:11:09;101451.88;;;20.07;86.21
65190;BME280;51777;53.570;9.984;2022-08-05T12:13:37;101461.69;;;20.19;84.58
65190;BME280;51777;53.570;9.984;2022-08-05T12:16:16;101463.09;;;19.94;86.33
65190;BME280;51777;53.570;9.984;2022-08-05T12:18:42;101461.31;;;19.73;86.00
65190;BME280;51777;53.570;9.984;2022-08-05T12:23:35;101472.16;;;19.91;85.82
65190;BME280;51777;53.570;9.984;2022-08-05T12:26:01;101462.75;;;19.76;84.65
65190;BME280;51777;53.570;9.984;2022-08-05T12:28:34;101465.91;;;19.71;83.18
65190;BME280;51777;53.570;9.984;2022-08-05T12:31:00;101469.63;;;19.77;82.95
65190;BME280;51777;53.570;9.984;2022-08-05T12:33:26;101474.66;;;20.00;83.74
65190;BME280;51777;53.570;9.984;2022-08-05T12:35:53;101469.25;;;20.08;83.71
65190;BME280;51777;53.570;9.984;2022-08-05T12:38:21;101473.75;;;20.14;82.79
65190;BME280;51777;53.570;9.984;2022-08-05T12:40:47;101464.28;;;19.91;82.11
65190;BME280;51777;53.570;9.984;2022-08-05T12:43:12;101465.53;;;19.95;81.88
65190;BME280;51777;53.570;9.984;2022-08-05T12:45:49;101469.03;;;20.31;82.52
65190;BME280;51777;53.570;9.984;2022-08-05T12:48:15;101476.34;;;20.35;79.88
65190;BME280;51777;53.570;9.984;2022-08-05T12:50:40;101488.34;;;20.72;80.54
65190;BME280;51777;53.570;9.984;2022-08-05T12:53:06;101480.44;;;21.14;79.04
65190;BME280;51777;53.570;9.984;2022-08-05T12:55:32;101489.66;;;21.44;76.04
65190;BME280;51777;53.570;9.984;2022-08-05T12:57:59;101478.78;;;21.67;71.04
65190;BME280;51777;53.570;9.984;2022-08-05T13:00:26;101481.47;;;22.13;70.68
65190;BME280;51777;53.570;9.984;2022-08-05T13:02:52;101494.88;;;24.72;65.08
65190;BME280;51777;53.570;9.984;2022-08-05T13:05:18;101510.31;;;28.25;53.72
65190;BME280;51777;53.570;9.984;2022-08-05T13:07:45;101512.75;;;29.31;44.82
65190;BME280;51777;53.570;9.984;2022-08-05T13:10:12;101509.00;;;30.65;43.62
65190;BME280;51777;53.570;9.984;2022-08-05T13:12:42;101515.63;;;31.55;41.71
65190;BME280;51777;53.570;9.984;2022-08-05T13:15:09;101511.72;;;30.80;41.61
65190;BME280;51777;53.570;9.984;2022-08-05T13:17:35;101519.38;;;30.19;43.44